createdAt,value
2023-03-04T00:01:17.927Z,101131.86
2023-03-04T00:03:46.310Z,101129.33
2023-03-04T00:06:14.729Z,101127.69
2023-03-04T00:08:43.132Z,101125.55
2023-03-04T00:11:11.544Z,101125.53
2023-03-04T00:13:39.997Z,101121.82
2023-03-04T00:16:08.417Z,101118.67
2023-03-04T00:18:36.825Z,101115.14
2023-03-04T00:21:05.486Z,101113.54
2023-03-04T00:23:34.058Z,101111.06
2023-03-04T00:26:02.401Z,101107.56
2023-03-04T00:28:30.762Z,101104.90
2023-03-04T00:30:59.112Z,101105.40
2023-03-04T00:33:27.656Z,101102.55
2023-03-04T00:35:56.134Z,101098.27
2023-03-04T00:38:24.636Z,101099.51
2023-03-04T00:40:53.646Z,101094.74
2023-03-04T00:43:22.903Z,101093.14
2023-03-04T00:45:51.468Z,101087.99
2023-03-04T00:48:19.931Z,101084.27
2023-03-04T00:50:49.305Z,101084.25
2023-03-04T00:53:17.703Z,101085.94
2023-03-04T00:55:46.773Z,101083.90
2023-03-04T00:58:15.139Z,101078.58
2023-03-04T01:00:43.661Z,101077.27
2023-03-04T01:03:12.137Z,101070.48
2023-03-04T01:05:41.215Z,101069.24
2023-03-04T01:08:09.701Z,101063.23
2023-03-04T01:10:38.100Z,101061.59
2023-03-04T01:13:06.488Z,101059.23
2023-03-04T01:15:34.817Z,101053.68
2023-03-04T01:18:03.702Z,101049.23
2023-03-04T01:20:32.110Z,101054.15
2023-03-04T01:23:00.484Z,101053.45
2023-03-04T01:25:28.833Z,101050.27
2023-03-04T01:27:57.291Z,101050.05
2023-03-04T01:30:25.739Z,101048.80
2023-03-04T01:32:54.095Z,101048.42
2023-03-04T01:35:22.566Z,101045.76
2023-03-04T01:37:50.957Z,101045.96
2023-03-04T01:40:20.021Z,101039.09
2023-03-04T01:42:48.541Z,101038.58
2023-03-04T01:45:20.317Z,101033.38
2023-03-04T01:47:50.503Z,101028.40
2023-03-04T01:50:35.196Z,101029.38
2023-03-04T01:53:04.609Z,101028.06
2023-03-04T01:55:33.167Z,101021.41
2023-03-04T01:58:01.835Z,101016.27
2023-03-04T02:00:35.204Z,101019.56
2023-03-04T02:03:12.755Z,101016.89
2023-03-04T02:05:49.272Z,101014.21
2023-03-04T02:08:22.089Z,101010.51
2023-03-04T02:10:52.292Z,101007.26
2023-03-04T02:13:21.054Z,101006.27
2023-03-04T02:15:50.001Z,101004.62
2023-03-04T02:18:24.706Z,101001.85
2023-03-04T02:21:17.727Z,100999.20
2023-03-04T02:24:01.239Z,100995.80
2023-03-04T02:26:32.775Z,100996.92
2023-03-04T02:29:03.457Z,100997.46
2023-03-04T02:31:36.451Z,100994.34
2023-03-04T02:34:11.860Z,100987.27
2023-03-04T02:36:41.935Z,100987.30
2023-03-04T02:39:21.700Z,100991.83
2023-03-04T02:41:54.912Z,100989.02
2023-03-04T02:44:28.260Z,100983.02
2023-03-04T02:46:58.246Z,100979.09
2023-03-04T02:49:30.172Z,100977.27
2023-03-04T02:52:25.124Z,100972.23
2023-03-04T02:54:53.553Z,100964.81
2023-03-04T02:57:21.996Z,100962.26
2023-03-04T02:59:53.802Z,100960.61
2023-03-04T03:02:24.359Z,100956.25
2023-03-04T03:04:52.986Z,100953.25
2023-03-04T03:07:21.894Z,100947.39
2023-03-04T03:09:51.129Z,100946.98
2023-03-04T03:12:19.771Z,100942.11
2023-03-04T03:14:48.180Z,100935.84
2023-03-04T03:17:18.940Z,100933.65
2023-03-04T03:19:48.621Z,100926.61
2023-03-04T03:22:17.823Z,100924.66
2023-03-04T03:24:46.514Z,100922.05
2023-03-04T03:27:14.900Z,100918.35
2023-03-04T03:29:43.273Z,100919.05
2023-03-04T03:32:11.804Z,100913.27
2023-03-04T03:34:40.367Z,100912.64
2023-03-04T03:37:10.321Z,100904.14
2023-03-04T03:39:38.760Z,100903.02
2023-03-04T03:42:07.620Z,100901.13
2023-03-04T03:44:36.012Z,100898.49
2023-03-04T03:47:04.646Z,100899.32
2023-03-04T03:49:33.090Z,100895.04
2023-03-04T03:52:01.684Z,100896.17
2023-03-04T03:54:30.146Z,100893.60
2023-03-04T03:56:58.566Z,100893.82
2023-03-04T03:59:26.999Z,100899.94
2023-03-04T04:01:55.556Z,100901.95
2023-03-04T04:04:24.081Z,100902.28
2023-03-04T04:06:52.480Z,100901.23
2023-03-04T04:09:20.850Z,100897.54
2023-03-04T04:11:49.396Z,100896.95
2023-03-04T04:14:17.788Z,100894.64
2023-03-04T04:16:46.193Z,100895.71
2023-03-04T04:19:21.413Z,100898.27
2023-03-04T04:21:50.252Z,100894.57
2023-03-04T04:24:19.879Z,100893.19
2023-03-04T04:26:48.254Z,100887.08
2023-03-04T04:29:16.721Z,100883.98
2023-03-04T04:31:45.203Z,100883.77
2023-03-04T04:34:13.576Z,100883.33
2023-03-04T04:36:42.022Z,100882.69
2023-03-04T04:39:10.605Z,100885.67
2023-03-04T04:41:42.726Z,100878.46
2023-03-04T04:44:13.027Z,100874.38
2023-03-04T04:46:41.993Z,100874.45
2023-03-04T04:49:10.441Z,100868.68
2023-03-04T04:51:39.969Z,100874.77
2023-03-04T04:54:08.689Z,100878.73
2023-03-04T04:56:37.168Z,100880.16
2023-03-04T04:59:07.540Z,100888.41
2023-03-04T05:01:36.433Z,100889.55
2023-03-04T05:04:05.491Z,100887.09
2023-03-04T05:06:33.949Z,100887.45
2023-03-04T05:09:03.329Z,100885.52
2023-03-04T05:11:32.197Z,100884.84
2023-03-04T05:14:00.589Z,100886.11
2023-03-04T05:16:29.044Z,100891.93
2023-03-04T05:18:57.473Z,100891.98
2023-03-04T05:21:25.828Z,100889.91
2023-03-04T05:23:54.201Z,100888.27
2023-03-04T05:26:22.805Z,100886.00
2023-03-04T05:28:52.041Z,100887.91
2023-03-04T05:31:20.780Z,100888.56
2023-03-04T05:33:52.346Z,100892.34
2023-03-04T05:36:21.217Z,100891.84
2023-03-04T05:42:21.731Z,100894.08
2023-03-04T05:44:50.189Z,100891.78
2023-03-04T05:47:18.561Z,100892.98
2023-03-04T05:49:46.911Z,100890.02
2023-03-04T05:52:15.327Z,100890.04
2023-03-04T05:54:44.044Z,100889.41
2023-03-04T05:57:12.556Z,100890.90
2023-03-04T05:59:41.034Z,100883.92
2023-03-04T06:02:09.517Z,100885.57
2023-03-04T06:04:37.976Z,100885.36
2023-03-04T06:07:06.449Z,100879.36
2023-03-04T06:09:34.921Z,100875.69
2023-03-04T06:12:03.634Z,100867.80
2023-03-04T06:14:32.065Z,100863.55
2023-03-04T06:17:00.447Z,100865.94
2023-03-04T06:19:28.928Z,100866.98
2023-03-04T06:21:57.398Z,100862.23
2023-03-04T06:24:25.801Z,100858.48
2023-03-04T06:26:54.284Z,100859.74
2023-03-04T06:29:22.925Z,100856.04
2023-03-04T06:31:51.408Z,100849.17
2023-03-04T06:34:20.125Z,100847.21
2023-03-04T06:36:48.869Z,100847.66
2023-03-04T06:39:17.712Z,100844.96
2023-03-04T06:41:46.363Z,100845.80
2023-03-04T06:44:14.771Z,100838.20
2023-03-04T06:46:43.621Z,100837.24
2023-03-04T06:49:12.174Z,100835.07
2023-03-04T06:51:41.116Z,100828.52
2023-03-04T06:54:10.511Z,100830.06
2023-03-04T06:56:39.490Z,100830.53
2023-03-04T06:59:08.556Z,100829.95
2023-03-04T07:01:38.241Z,100829.17
2023-03-04T07:04:06.768Z,100825.21
2023-03-04T07:06:35.710Z,100822.52
2023-03-04T07:09:07.160Z,100824.04
2023-03-04T07:11:35.836Z,100819.17
2023-03-04T07:14:04.353Z,100814.84
2023-03-04T07:16:33.289Z,100815.81
2023-03-04T07:19:01.996Z,100815.02
2023-03-04T07:21:30.954Z,100806.41
2023-03-04T07:23:59.846Z,100805.40
2023-03-04T07:26:28.341Z,100800.36
2023-03-04T07:28:59.518Z,100795.45
2023-03-04T07:31:31.555Z,100788.42
2023-03-04T07:34:10.069Z,100789.71
2023-03-04T07:36:38.680Z,100786.02
2023-03-04T07:39:08.341Z,100786.89
2023-03-04T07:41:37.535Z,100781.91
2023-03-04T07:44:08.419Z,100780.30
2023-03-04T07:46:37.199Z,100773.86
2023-03-04T07:49:05.809Z,100766.58
2023-03-04T07:51:35.376Z,100758.40
2023-03-04T07:54:04.090Z,100762.23
2023-03-04T07:56:34.248Z,100758.46
2023-03-04T07:59:03.413Z,100751.68
2023-03-04T08:01:37.964Z,100757.48
2023-03-04T08:04:07.971Z,100751.58
2023-03-04T08:06:36.617Z,100746.91
2023-03-04T08:09:08.648Z,100747.21
2023-03-04T08:11:38.510Z,100745.39
2023-03-04T08:14:07.572Z,100736.65
2023-03-04T08:16:36.254Z,100735.28
2023-03-04T08:19:06.090Z,100733.79
2023-03-04T08:21:35.460Z,100729.80
2023-03-04T08:24:08.673Z,100728.86
2023-03-04T08:26:42.246Z,100721.73
2023-03-04T08:29:19.198Z,100720.54
2023-03-04T08:31:49.782Z,100717.75
2023-03-04T08:34:20.991Z,100717.79
2023-03-04T08:36:49.952Z,100713.42
2023-03-04T08:39:19.455Z,100705.36
2023-03-04T08:41:49.398Z,100703.45
2023-03-04T08:44:18.195Z,100703.77
2023-03-04T08:46:46.806Z,100697.46
2023-03-04T08:49:15.284Z,100686.33
2023-03-04T08:51:45.547Z,100681.60
2023-03-04T08:54:14.080Z,100685.75
2023-03-04T08:56:42.486Z,100684.17
2023-03-04T08:59:10.909Z,100682.98
2023-03-04T09:01:39.564Z,100677.55
2023-03-04T09:04:08.060Z,100673.01
2023-03-04T09:06:36.531Z,100669.11
2023-03-04T09:09:05.452Z,100668.48
2023-03-04T09:11:34.785Z,100665.42
2023-03-04T09:14:03.283Z,100655.13
2023-03-04T09:16:31.784Z,100653.91
2023-03-04T09:19:01.507Z,100646.11
2023-03-04T09:21:30.116Z,100641.46
2023-03-04T09:23:58.573Z,100638.25
2023-03-04T09:26:29.965Z,100629.66
2023-03-04T09:29:01.020Z,100621.31
2023-03-04T09:31:30.455Z,100618.71
2023-03-04T09:34:00.459Z,100616.36
2023-03-04T09:36:29.008Z,100610.41
2023-03-04T09:39:05.146Z,100607.60
2023-03-04T09:41:42.315Z,100599.21
2023-03-04T09:44:16.455Z,100590.77
2023-03-04T09:46:47.163Z,100587.52
2023-03-04T09:49:18.221Z,100585.17
2023-03-04T09:52:03.915Z,100576.27
2023-03-04T09:55:04.930Z,100566.70
2023-03-04T09:58:17.013Z,100561.46
2023-03-04T10:00:55.132Z,100562.46
2023-03-04T10:03:33.902Z,100556.16
2023-03-04T10:06:12.020Z,100548.85
2023-03-04T10:09:28.777Z,100544.73
2023-03-04T10:12:07.714Z,100535.41
2023-03-04T10:14:48.020Z,100534.84
2023-03-04T10:17:24.938Z,100525.07
2023-03-04T10:20:12.674Z,100526.38
2023-03-04T10:23:03.049Z,100515.52
2023-03-04T10:25:33.562Z,100515.38
2023-03-04T10:28:20.152Z,100511.34
2023-03-04T10:31:20.568Z,100502.89
2023-03-04T10:33:50.010Z,100498.75
2023-03-04T10:36:30.680Z,100488.52
2023-03-04T10:39:05.845Z,100479.44
2023-03-04T10:41:34.508Z,100477.81
2023-03-04T10:44:08.839Z,100470.18
2023-03-04T10:46:47.176Z,100466.45
2023-03-04T10:49:20.512Z,100455.88
2023-03-04T10:52:23.767Z,100450.66
2023-03-04T10:54:55.751Z,100444.39
2023-03-04T10:57:40.241Z,100443.34
2023-03-04T11:00:17.942Z,100438.19
2023-03-04T11:02:48.152Z,100434.90
2023-03-04T11:05:22.804Z,100429.29
2023-03-04T11:07:57.281Z,100430.18
2023-03-04T11:10:39.576Z,100428.54
2023-03-04T11:13:24.223Z,100418.39
2023-03-04T11:16:05.365Z,100414.61
2023-03-04T11:18:53.355Z,100409.94
2023-03-04T11:21:30.586Z,100400.92
2023-03-04T11:24:18.797Z,100392.47
2023-03-04T11:27:18.632Z,100385.42
2023-03-04T11:29:56.816Z,100384.79
2023-03-04T11:32:38.317Z,100378.27
2023-03-04T11:35:31.308Z,100368.15
2023-03-04T11:38:09.015Z,100358.74
2023-03-04T11:41:04.470Z,100352.28
2023-03-04T11:43:38.459Z,100347.30
2023-03-04T11:46:47.686Z,100342.29
2023-03-04T11:50:00.263Z,100339.19
2023-03-04T11:52:50.557Z,100326.85
2023-03-04T11:55:32.771Z,100328.27
2023-03-04T11:58:08.011Z,100321.38
2023-03-04T12:00:39.613Z,100324.66
2023-03-04T12:03:48.445Z,100316.20
2023-03-04T12:06:55.303Z,100313.23
2023-03-04T12:09:57.716Z,100306.21
2023-03-04T12:12:47.283Z,100302.45
2023-03-04T12:15:36.717Z,100302.64
2023-03-04T12:18:52.865Z,100298.17
2023-03-04T12:21:37.710Z,100291.69
2023-03-04T12:24:46.805Z,100291.75
2023-03-04T12:27:30.321Z,100288.86
2023-03-04T12:30:07.793Z,100286.98
2023-03-04T12:32:54.552Z,100275.19
2023-03-04T12:35:35.671Z,100277.29
2023-03-04T12:38:06.851Z,100277.42
2023-03-04T12:41:31.989Z,100271.42
2023-03-04T12:44:17.082Z,100267.80
2023-03-04T12:47:00.602Z,100259.51
2023-03-04T12:49:41.046Z,100253.38
2023-03-04T12:52:18.489Z,100249.41
2023-03-04T12:54:51.977Z,100237.54
2023-03-04T12:57:25.531Z,100237.98
2023-03-04T13:00:40.730Z,100241.48
2023-03-04T13:03:20.269Z,100238.70
2023-03-04T13:06:04.321Z,100230.70
2023-03-04T13:09:01.202Z,100220.77
2023-03-04T13:11:30.101Z,100215.05
2023-03-04T13:14:19.630Z,100212.65
2023-03-04T13:16:57.165Z,100199.07
2023-03-04T13:19:46.763Z,100197.52
2023-03-04T13:22:40.615Z,100191.74
2023-03-04T13:25:32.227Z,100184.36
2023-03-04T13:28:00.638Z,100177.52
2023-03-04T13:30:32.088Z,100174.83
2023-03-04T13:33:09.823Z,100171.20
2023-03-04T13:35:48.169Z,100166.67
2023-03-04T13:38:38.998Z,100160.67
2023-03-04T13:41:19.939Z,100157.12
2023-03-04T13:44:02.799Z,100151.54
2023-03-04T13:46:43.583Z,100148.98
2023-03-04T13:49:26.440Z,100144.94
2023-03-04T13:51:55.510Z,100138.42
2023-03-04T13:54:42.124Z,100134.46
2023-03-04T13:57:23.010Z,100129.08
2023-03-04T13:59:57.121Z,100125.69
2023-03-04T14:02:26.282Z,100122.77
2023-03-04T14:04:54.719Z,100123.71
2023-03-04T14:07:30.523Z,100111.84
2023-03-04T14:10:23.228Z,100113.61
2023-03-04T14:12:57.796Z,100120.13
2023-03-04T14:15:32.064Z,100118.84
2023-03-04T14:18:04.727Z,100114.80
2023-03-04T14:20:36.609Z,100110.71
2023-03-04T14:23:28.504Z,100110.54
2023-03-04T14:26:17.773Z,100108.44
2023-03-04T14:28:50.262Z,100102.66
2023-03-04T14:31:21.116Z,100105.27
2023-03-04T14:33:57.381Z,100098.71
2023-03-04T14:36:27.003Z,100096.42
2023-03-04T14:39:02.659Z,100097.70
2023-03-04T14:41:40.671Z,100089.02
2023-03-04T14:44:38.419Z,100089.62
2023-03-04T14:47:17.455Z,100085.58
2023-03-04T14:49:46.786Z,100083.15
2023-03-04T14:52:37.484Z,100081.05
2023-03-04T14:55:28.738Z,100081.48
2023-03-04T14:58:10.117Z,100084.41
2023-03-04T15:00:41.197Z,100083.73
2023-03-04T15:03:26.544Z,100083.48
2023-03-04T15:05:55.971Z,100081.67
2023-03-04T15:08:29.894Z,100081.75
2023-03-04T15:11:02.772Z,100079.05
2023-03-04T15:13:48.202Z,100078.91
2023-03-04T15:16:23.589Z,100078.05
2023-03-04T15:19:03.428Z,100077.05
2023-03-04T15:21:41.060Z,100075.87
2023-03-04T15:24:11.834Z,100070.23
2023-03-04T15:26:43.896Z,100071.94
2023-03-04T15:29:19.534Z,100074.59
2023-03-04T15:31:48.991Z,100072.17
2023-03-04T15:34:20.408Z,100070.66
2023-03-04T15:36:52.817Z,100071.96
2023-03-04T15:39:23.421Z,100072.70
2023-03-04T15:41:51.935Z,100071.48
2023-03-04T15:44:20.437Z,100072.70
2023-03-04T15:46:48.844Z,100073.48
2023-03-04T15:49:17.266Z,100076.56
2023-03-04T15:51:45.692Z,100074.19
2023-03-04T15:54:14.339Z,100072.11
2023-03-04T15:56:43.213Z,100072.74
2023-03-04T15:59:16.158Z,100070.04
2023-03-04T16:01:45.197Z,100072.15
2023-03-04T16:04:17.921Z,100075.46
2023-03-04T16:06:49.392Z,100074.91
2023-03-04T16:09:21.183Z,100078.43
2023-03-04T16:11:50.139Z,100075.35
2023-03-04T16:14:18.779Z,100082.37
2023-03-04T16:16:48.198Z,100079.89
2023-03-04T16:19:17.304Z,100083.86
2023-03-04T16:21:51.128Z,100083.21
2023-03-04T16:24:22.216Z,100085.67
2023-03-04T16:26:52.675Z,100083.35
2023-03-04T16:29:22.706Z,100090.52
2023-03-04T16:31:54.835Z,100090.02
2023-03-04T16:34:28.217Z,100090.09
2023-03-04T16:37:03.949Z,100091.42
2023-03-04T16:39:33.240Z,100094.11
2023-03-04T16:42:03.026Z,100091.32
2023-03-04T16:44:32.447Z,100092.54
2023-03-04T16:47:04.003Z,100092.83
2023-03-04T16:49:33.083Z,100095.63
2023-03-04T16:52:06.028Z,100097.10
2023-03-04T16:54:36.467Z,100099.63
2023-03-04T16:57:06.751Z,100103.25
2023-03-04T16:59:36.919Z,100096.61
2023-03-04T17:02:17.040Z,100096.08
2023-03-04T17:05:22.164Z,100089.70
2023-03-04T17:07:50.805Z,100096.09
2023-03-04T17:10:20.033Z,100094.17
2023-03-04T17:12:50.486Z,100094.95
2023-03-04T17:15:20.486Z,100101.25
2023-03-04T17:17:49.678Z,100100.34
2023-03-04T17:20:19.978Z,100097.17
2023-03-04T17:22:48.653Z,100102.55
2023-03-04T17:25:17.158Z,100100.61
2023-03-04T17:27:46.362Z,100102.08
2023-03-04T17:30:19.596Z,100103.27
2023-03-04T17:32:55.684Z,100101.92
2023-03-04T17:35:26.276Z,100103.29
2023-03-04T17:37:59.771Z,100101.24
2023-03-04T17:40:28.824Z,100100.08
2023-03-04T17:42:58.663Z,100103.05
2023-03-04T17:45:32.369Z,100104.06
2023-03-04T17:48:01.251Z,100105.89
2023-03-04T17:50:29.719Z,100110.98
2023-03-04T17:52:59.097Z,100108.59
2023-03-04T17:55:31.973Z,100113.50
2023-03-04T17:58:05.521Z,100111.42
2023-03-04T18:04:15.258Z,100112.24
2023-03-04T18:06:44.618Z,100114.84
2023-03-04T18:09:13.810Z,100116.70
2023-03-04T18:11:43.237Z,100116.58
2023-03-04T18:14:15.521Z,100125.16
2023-03-04T18:16:44.069Z,100128.96
2023-03-04T18:19:12.706Z,100129.56
2023-03-04T18:21:41.787Z,100126.73
2023-03-04T18:24:11.732Z,100127.97
2023-03-04T18:26:45.803Z,100129.20
2023-03-04T18:29:14.961Z,100132.17
2023-03-04T18:31:49.370Z,100132.23
2023-03-04T18:34:18.304Z,100131.51
2023-03-04T18:36:48.193Z,100130.69
2023-03-04T18:39:18.017Z,100129.29
2023-03-04T18:41:46.922Z,100132.52
2023-03-04T18:44:15.870Z,100131.66
2023-03-04T18:46:52.675Z,100131.00
2023-03-04T18:49:21.784Z,100130.70
2023-03-04T18:51:50.338Z,100129.98
2023-03-04T18:54:19.323Z,100131.90
2023-03-04T18:56:56.519Z,100128.64
2023-03-04T18:59:53.026Z,100135.59
2023-03-04T19:02:36.688Z,100133.67
2023-03-04T19:05:14.677Z,100139.09
2023-03-04T19:07:46.668Z,100143.14
2023-03-04T19:10:16.608Z,100144.80
2023-03-04T19:12:47.473Z,100147.73
2023-03-04T19:15:16.911Z,100148.70
2023-03-04T19:17:46.701Z,100149.90
2023-03-04T19:20:16.591Z,100156.91
2023-03-04T19:22:47.934Z,100158.14
2023-03-04T19:25:18.777Z,100164.88
2023-03-04T19:27:47.842Z,100159.65
2023-03-04T19:30:18.279Z,100163.05
2023-03-04T19:32:47.699Z,100171.16
2023-03-04T19:35:17.631Z,100169.36
2023-03-04T19:37:47.112Z,100171.60
2023-03-04T19:40:15.612Z,100174.09
2023-03-04T19:42:44.298Z,100175.86
2023-03-04T19:45:13.239Z,100180.45
2023-03-04T19:47:41.848Z,100183.95
2023-03-04T19:50:12.067Z,100184.66
2023-03-04T19:52:44.238Z,100189.73
2023-03-04T19:55:13.509Z,100187.93
2023-03-04T19:57:44.939Z,100189.30
2023-03-04T20:07:04.760Z,100192.00
2023-03-04T20:09:34.461Z,100195.86
2023-03-04T20:12:03.517Z,100198.45
2023-03-04T20:14:35.428Z,100194.16
2023-03-04T20:17:07.177Z,100191.45
2023-03-04T20:19:35.874Z,100197.40
2023-03-04T20:22:05.943Z,100186.57
2023-03-04T20:24:34.947Z,100188.98
2023-03-04T20:27:10.156Z,100190.67
2023-03-04T20:29:39.242Z,100196.77
2023-03-04T20:32:07.992Z,100201.45
2023-03-04T20:34:37.097Z,100204.70
2023-03-04T20:37:12.600Z,100212.65
2023-03-04T20:39:48.005Z,100231.34
2023-03-04T20:42:18.089Z,100255.74
2023-03-04T20:44:48.938Z,100252.48
2023-03-04T20:47:18.072Z,100243.73
2023-03-04T20:49:50.041Z,100245.49
2023-03-04T20:52:19.644Z,100248.96
2023-03-04T20:54:48.108Z,100251.83
2023-03-04T20:57:17.984Z,100259.64
2023-03-04T20:59:48.484Z,100272.76
2023-03-04T21:02:20.317Z,100277.16
2023-03-04T21:04:49.306Z,100277.70
2023-03-04T21:07:18.150Z,100279.43
2023-03-04T21:09:49.010Z,100290.30
2023-03-04T21:12:17.867Z,100293.09
2023-03-04T21:14:46.959Z,100308.60
2023-03-04T21:17:16.106Z,100314.23
2023-03-04T21:19:49.509Z,100321.98
2023-03-04T21:22:20.573Z,100326.42
2023-03-04T21:24:50.791Z,100330.38
2023-03-04T21:27:22.749Z,100335.02
2023-03-04T21:29:51.153Z,100345.69
2023-03-04T21:32:27.344Z,100345.74
2023-03-04T21:34:56.388Z,100349.23
2023-03-04T21:37:26.186Z,100355.36
2023-03-04T21:39:55.513Z,100365.04
2023-03-04T21:42:24.530Z,100374.48
2023-03-04T21:44:54.411Z,100379.68
2023-03-04T21:47:23.112Z,100388.74
2023-03-04T21:49:51.809Z,100395.70
2023-03-04T21:53:46.833Z,100401.77
2023-03-04T21:56:15.790Z,100403.61
2023-03-04T21:58:45.991Z,100404.55
2023-03-04T22:01:18.772Z,100404.39
2023-03-04T22:03:50.501Z,100406.56
2023-03-04T22:06:22.704Z,100412.26
2023-03-04T22:08:52.758Z,100409.61
2023-03-04T22:11:23.766Z,100412.08
2023-03-04T22:14:01.688Z,100412.48
2023-03-04T22:16:35.363Z,100418.14
2023-03-04T22:19:05.849Z,100420.45
2023-03-04T22:21:34.253Z,100422.95
2023-03-04T22:24:02.778Z,100426.33
2023-03-04T22:26:32.997Z,100428.64
2023-03-04T22:29:02.356Z,100431.86
2023-03-04T22:31:38.368Z,100434.54
2023-03-04T22:34:09.982Z,100434.02
2023-03-04T22:36:42.000Z,100435.28
2023-03-04T22:39:14.235Z,100438.14
2023-03-04T22:41:42.706Z,100441.18
2023-03-04T22:44:11.417Z,100443.52
2023-03-04T22:46:40.405Z,100445.13
2023-03-04T22:49:13.181Z,100446.20
2023-03-04T22:51:43.786Z,100453.98
2023-03-04T22:54:17.941Z,100454.36
2023-03-04T22:56:46.420Z,100454.52
2023-03-04T22:59:15.004Z,100455.58
2023-03-04T23:01:43.439Z,100460.17
2023-03-04T23:04:11.957Z,100457.17
2023-03-04T23:06:40.454Z,100457.35
2023-03-04T23:09:08.949Z,100459.47
2023-03-04T23:11:37.382Z,100459.83
2023-03-04T23:14:08.118Z,100463.02
2023-03-04T23:16:42.396Z,100466.55
2023-03-04T23:19:16.790Z,100469.56
2023-03-04T23:21:45.426Z,100472.38
2023-03-04T23:24:14.659Z,100471.88
2023-03-04T23:26:43.770Z,100476.12
2023-03-04T23:29:15.284Z,100474.72
2023-03-04T23:31:44.535Z,100479.31
2023-03-04T23:34:13.867Z,100485.49
2023-03-04T23:36:42.517Z,100487.44
2023-03-04T23:39:12.388Z,100487.43
2023-03-04T23:41:40.896Z,100487.09
2023-03-04T23:44:12.564Z,100484.79
2023-03-04T23:46:41.075Z,100488.48
2023-03-04T23:49:12.905Z,100490.25
2023-03-04T23:51:44.447Z,100485.66
2023-03-04T23:54:14.700Z,100489.36
2023-03-04T23:56:43.177Z,100489.17
2023-03-04T23:59:12.502Z,100487.76
